Colombo Express — DIHC — position and weather

sailwx.info

Track history (hours):
 
Tides and Currents Weather Stations Pressure Air Temp Water Temp Dewpoint Dewpoint Depression Visibility Wind Speed Wind Dir Waves Ship Positions

Colombo Express

Last reported at 2015-Mar-27 06:32 UTC. Time now 2015-Mar-27 06:56 UTC.
Position N 31°36' E 121°27'.

Length 335.5 m; beam 42.8 m; draft 14.6 m.

Type: Ship. MMSI: 211433000.

Date/timePositionNaut miles runAvg speedWind from/ knotsBaromVisibWave heightAir tempDewpointWater temp
2015-Mar-27 06:32N 31°36' E 121°27'1 0.7
2015-Mar-27 05:29N 31°35' E 121°28'1 0.8
2015-Mar-27 04:33N 31°36' E 121°27'0 0.0
2015-Mar-27 03:32N 31°36' E 121°27'0 0.0
2015-Mar-27 02:32N 31°36' E 121°27'0 0.0
2015-Mar-27 01:33N 31°36' E 121°27'0 0.0
2015-Mar-27 00:33N 31°36' E 121°27'0 0.0
2015-Mar-26 23:32N 31°36' E 121°27'0 0.0
2015-Mar-26 22:32N 31°36' E 121°27'0 0.0
2015-Mar-26 21:33N 31°36' E 121°27'0 0.0
2015-Mar-26 20:33N 31°36' E 121°27'0 0.0
2015-Mar-26 19:31N 31°36' E 121°27'0 0.0
2015-Mar-26 18:33N 31°36' E 121°27'0 0.0
2015-Mar-26 17:33N 31°36' E 121°27'0 0.0
2015-Mar-26 16:31N 31°36' E 121°27'0 0.0
2015-Mar-26 15:33N 31°36' E 121°27'4139.6
2015-Mar-26 14:30N 31°05' E 122°00'4140.7
2015-Mar-26 13:29N 31°36' E 121°27'0 0.0
2015-Mar-26 12:32N 31°36' E 121°27'6565.7
2015-Mar-26 11:33N 31°12' E 122°37'6560.7
2015-Mar-26 10:29N 31°36' E 121°27'0 0.0
2015-Mar-26 09:32N 31°36' E 121°27'0 0.0
2015-Mar-26 08:32N 31°36' E 121°27'0 0.0
2015-Mar-26 07:32N 31°36' E 121°27'0 0.0
2015-Mar-26 06:32N 31°36' E 121°27'0 0.0
2015-Mar-26 05:33N 31°36' E 121°27'0 0.0
2015-Mar-26 04:33N 31°36' E 121°27'0 0.0
2015-Mar-26 03:33N 31°36' E 121°27'0 0.0
2015-Mar-26 02:33N 31°36' E 121°27'0 0.0
2015-Mar-26 01:33N 31°36' E 121°27'0 0.0
2015-Mar-26 00:32N 31°36' E 121°27'0 0.0
2015-Mar-25 23:31N 31°36' E 121°27'0 0.0
2015-Mar-25 22:31N 31°36' E 121°27'0 0.0
2015-Mar-25 21:30N 31°36' E 121°27'0 0.0
2015-Mar-25 20:33N 31°36' E 121°27'0 0.0
2015-Mar-25 19:33N 31°36' E 121°27'2 1.6
2015-Mar-25 18:33N 31°35' E 121°28'2 1.6
2015-Mar-25 17:33N 31°36' E 121°27'0 0.0
2015-Mar-25 16:33N 31°36' E 121°27'2 1.5
2015-Mar-25 15:31N 31°35' E 121°28'2 1.6
2015-Mar-25 14:33N 31°36' E 121°27'0 0.0
2015-Mar-25 13:30N 31°36' E 121°27'2 1.6
2015-Mar-25 12:33N 31°35' E 121°28'2 1.6
2015-Mar-25 11:33N 31°36' E 121°27'0 0.0
2015-Mar-25 10:32N 31°36' E 121°27'0 0.0
2015-Mar-25 09:33N 31°36' E 121°27'6564.0
2015-Mar-25 08:33N 31°11' E 122°37'36443493.5
2015-Mar-25 07:30N 11°58' E 060°40'35863773.0
2015-Mar-25 06:33N 31°35' E 121°28'610.5
2015-Mar-25 06:00N 31°30' E 121°24'613.4 140 / 131034.010.8 11.5 3.211.0
2015-Mar-25 05:33N 31°35' E 121°28'6362.4
2015-Mar-25 04:32N 31°12' E 122°37'6364.4
2015-Mar-25 03:33N 31°35' E 121°28'0 0.0
2015-Mar-25 02:33N 31°35' E 121°28'0 0.0
2015-Mar-25 01:33N 31°35' E 121°28'0 0.1
2015-Mar-25 00:31N 31°35' E 121°28'611.2
2015-Mar-25 00:00N 31°30' E 121°24'613.4 110 / 71034.5 5.4 0.5 9.0 3.411.0
2015-Mar-24 23:33N 31°35' E 121°28'0 0.1
2015-Mar-24 22:33N 31°35' E 121°28'0 0.0
2015-Mar-24 21:33N 31°35' E 121°28'0 0.0
2015-Mar-24 20:31N 31°35' E 121°28'6 6.5
2015-Mar-24 19:33N 31°30' E 121°33'6 6.3
2015-Mar-24 18:33N 31°35' E 121°28'6361.2
2015-Mar-24 17:31N 31°01' E 122°30'6363.9
2015-Mar-24 16:32N 31°35' E 121°28'0 0.0
2015-Mar-24 15:29N 31°35' E 121°28'0 0.1
2015-Mar-24 14:32N 31°35' E 121°28'0 0.1
2015-Mar-24 13:32N 31°35' E 121°28'6364.5
2015-Mar-24 12:33N 31°12' E 122°37'6359.0
2015-Mar-24 11:29N 31°35' E 121°28'0 0.1
2015-Mar-24 10:33N 31°35' E 121°28'0 0.2
2015-Mar-24 09:33N 31°35' E 121°28'0 0.0
2015-Mar-24 08:33N 31°35' E 121°28'0 0.0
2015-Mar-24 07:33N 31°35' E 121°28'0 0.0
2015-Mar-24 06:33N 31°35' E 121°28'0 0.0
2015-Mar-24 05:29N 31°35' E 121°28'0 0.0
2015-Mar-24 04:29N 31°35' E 121°28'33323544.1
2015-Mar-24 03:33N 10°06' E 066°40'33333143.9
2015-Mar-24 02:29N 31°35' E 121°28'0 0.0
2015-Mar-24 01:32N 31°35' E 121°28'0 0.0
2015-Mar-24 00:32N 31°35' E 121°28'0 0.1
2015-Mar-23 23:32N 31°35' E 121°28'0 0.1
2015-Mar-23 22:31N 31°35' E 121°28'0 0.1
2015-Mar-23 21:33N 31°35' E 121°28'0 0.0
2015-Mar-23 20:31N 31°35' E 121°28'0 0.0
2015-Mar-23 19:33N 31°35' E 121°28'0 0.0
2015-Mar-23 18:31N 31°35' E 121°28'611.1
2015-Mar-23 18:00N 31°30' E 121°24'612.4 060 / 71032.010.8 7.5 5.511.0
2015-Mar-23 17:31N 31°35' E 121°28'6363.4
2015-Mar-23 16:31N 31°11' E 122°37'6363.2
2015-Mar-23 15:31N 31°35' E 121°28'6363.6
2015-Mar-23 14:32N 31°12' E 122°37'6364.1
2015-Mar-23 13:32N 31°35' E 121°28'0 0.0
2015-Mar-23 12:29N 31°35' E 121°28'0 0.0
2015-Mar-23 11:34N 31°35' E 121°28'0 0.1
2015-Mar-23 10:33N 31°35' E 121°28'0 0.0
2015-Mar-23 09:31N 31°35' E 121°28'20832024.0
2015-Mar-23 08:29N 01°16' E 103°51'20832174.3
2015-Mar-23 07:31N 31°35' E 121°28'0 0.0
2015-Mar-23 06:30N 31°35' E 121°28'611.4
2015-Mar-23 06:00N 31°30' E 121°24'613.0 080 / 111028.010.8 11.5 4.411.0
2015-Mar-23 05:32N 31°35' E 121°28'0 0.0
2015-Mar-23 04:32N 31°35' E 121°28'45624576.1
2015-Mar-23 03:33N 31°24' E 032°19'45624548.4
2015-Mar-23 02:32N 31°35' E 121°28'11601148.0
2015-Mar-23 01:32N 14°32' E 111°32'11601194.6
2015-Mar-23 00:33N 31°35' E 121°28'53835114.8
2015-Mar-22 23:30N 44°25' E 008°47'54545619.8
2015-Mar-22 22:32N 31°12' E 122°37'6360.9
2015-Mar-22 21:30N 31°35' E 121°28'0 0.1
2015-Mar-22 20:29N 31°35' E 121°28'0 0.0
2015-Mar-22 19:33N 31°35' E 121°28'0 0.0
2015-Mar-22 18:33N 31°35' E 121°28'610.6
2015-Mar-22 18:00N 31°30' E 121°24'611.8 050 / 41027.0 5.4 7.5 6.511.0
2015-Mar-22 17:30N 31°35' E 121°28'0 0.0
2015-Mar-22 16:33N 31°35' E 121°28'680652.9
2015-Mar-22 15:30N 22°20' E 114°07'680707.4
2015-Mar-22 14:33N 31°35' E 121°28'2323.0
2015-Mar-22 13:32N 31°16' E 121°45'419420.5
2015-Mar-22 12:32N 34°50' E 128°55'421428.6
2015-Mar-22 11:33N 31°35' E 121°28'6363.2
2015-Mar-22 10:33N 31°12' E 122°37'6363.4
2015-Mar-22 09:33N 31°35' E 121°28'0 0.1
2015-Mar-22 08:33N 31°35' E 121°28'7 7.1
2015-Mar-22 07:33N 31°31' E 121°35'8 8.0
2015-Mar-22 06:33N 31°31' E 121°26'1010.2
2015-Mar-22 05:34N 31°24' E 121°35'1010.2
2015-Mar-22 04:33N 31°17' E 121°44'1414.3
2015-Mar-22 03:34N 31°07' E 121°56'1212.5
2015-Mar-22 02:33N 31°03' E 122°10'1110.8
2015-Mar-22 01:33N 31°02' E 122°22'9 8.7
2015-Mar-22 00:33N 31°06' E 122°31'8 6.2
2015-Mar-21 23:20N 31°11' E 122°37'0 0.0
2015-Mar-21 22:28N 31°11' E 122°37'0 0.0
2015-Mar-21 21:31N 31°11' E 122°37'0 0.0
2015-Mar-21 20:32N 31°11' E 122°37'0 0.0
2015-Mar-21 19:08N 31°11' E 122°37'0 0.0
2015-Mar-21 18:26N 31°12' E 122°37'1 2.7
2015-Mar-21 18:00N 31°12' E 122°36'1 2.8 280 / 111022.0 5.4 3.012.011.111.0
2015-Mar-21 17:33N 31°12' E 122°37'0 0.0
2015-Mar-21 16:21N 31°12' E 122°37'0 0.1
2015-Mar-21 15:33N 31°12' E 122°37'0 0.0
2015-Mar-21 13:26N 31°12' E 122°37'0 0.0
2015-Mar-21 12:15N 31°12' E 122°37'0 0.0
2015-Mar-21 11:30N 31°12' E 122°37'0 0.1
2015-Mar-21 10:33N 31°11' E 122°37'0 0.0
2015-Mar-21 09:06N 31°11' E 122°37'0 0.0
2015-Mar-21 08:30N 31°11' E 122°37'0 0.0
2015-Mar-21 07:21N 31°11' E 122°37'0 0.0
2015-Mar-21 06:32N 31°11' E 122°37'1 2.3
2015-Mar-21 06:00N 31°12' E 122°36'1 2.2 330 / 71019.5 0.5 13.510.911.0
2015-Mar-21 05:25N 31°11' E 122°37'0 0.0
2015-Mar-21 02:07N 31°12' E 122°37'0 0.0
2015-Mar-21 00:33N 31°12' E 122°37'610.2
2015-Mar-21 00:00N 31°06' E 122°36'610.8 310 / 131022.0 2.2 11.5 8.911.0
2015-Mar-20 23:29N 31°11' E 122°37'0 0.0
2015-Mar-20 22:25N 31°11' E 122°37'0 0.0
2015-Mar-20 21:31N 31°11' E 122°37'0 0.0
2015-Mar-20 20:25N 31°11' E 122°37'0 0.0
2015-Mar-20 19:31N 31°11' E 122°37'0 0.0
2015-Mar-20 18:21N 31°12' E 122°37'0 0.0
2015-Mar-20 17:29N 31°12' E 122°37'0 0.0
2015-Mar-20 16:09N 31°12' E 122°37'0 0.0
2015-Mar-20 15:33N 31°12' E 122°37'0 0.0
2015-Mar-20 14:25N 31°12' E 122°37'0 0.0
2015-Mar-20 13:19N 31°12' E 122°37'0 0.0
2015-Mar-20 12:24N 31°11' E 122°37'0 0.0
2015-Mar-20 11:22N 31°11' E 122°37'704380.5
2015-Mar-20 09:31N 22°13' E 114°10'704547.7
2015-Mar-20 08:14N 31°11' E 122°37'0 0.0
2015-Mar-20 07:33N 31°11' E 122°37'0 0.0
2015-Mar-20 06:27N 31°12' E 122°37'1 2.7
2015-Mar-20 06:00N 31°12' E 122°36'1 1.9 080 / 21019.0 5.4 12.0 9.311.0
2015-Mar-20 05:21N 31°12' E 122°37'0 0.0
2015-Mar-20 04:32N 31°12' E 122°37'0 0.0
2015-Mar-19 22:28N 31°11' E 122°37'0 0.0
2015-Mar-19 21:21N 31°11' E 122°37'0 0.0
2015-Mar-19 20:32N 31°11' E 122°37'0 0.0
2015-Mar-19 19:29N 31°11' E 122°37'0 0.0
2015-Mar-19 18:30N 31°11' E 122°37'0 0.1
2015-Mar-19 17:30N 31°11' E 122°37'0 0.0
2015-Mar-19 16:24N 31°12' E 122°37'0 0.0
2015-Mar-19 15:25N 31°12' E 122°37'0 0.1
2015-Mar-19 14:33N 31°12' E 122°37'0 0.0
2015-Mar-19 13:30N 31°12' E 122°37'0 0.0
2015-Mar-19 12:29N 31°12' E 122°37'388404.4
2015-Mar-19 11:31N 35°04' E 128°47'388386.7
2015-Mar-19 10:31N 31°11' E 122°37'0 0.1
2015-Mar-19 09:33N 31°11' E 122°37'0 0.0
2015-Mar-19 08:29N 31°11' E 122°37'0 0.0
2015-Mar-19 07:32N 31°11' E 122°37'0 0.1
2015-Mar-19 06:32N 31°12' E 122°37'6 5.9
2015-Mar-19 05:30N 31°10' E 122°44'1414.2
2015-Mar-19 04:31N 31°17' E 122°58'  
Track history (hours):
 
Tides and Currents Weather Stations Pressure Air Temp Water Temp Dewpoint Dewpoint Depression Visibility Wind Speed Wind Dir Waves Ship Positions

Colombo Express

Last reported at 2015-Mar-27 06:32 UTC. Time now 2015-Mar-27 06:56 UTC.
Position N 31°36' E 121°27'.

Length 335.5 m; beam 42.8 m; draft 14.6 m.

Type: Ship. MMSI: 211433000.

Date/timePositionNaut miles runAvg speedWind from/ knotsBaromVisibWave heightAir tempDewpointWater temp
2015-Mar-27 06:32N 31°36' E 121°27'1 0.7
2015-Mar-27 05:29N 31°35' E 121°28'1 0.8
2015-Mar-27 04:33N 31°36' E 121°27'0 0.0
2015-Mar-27 03:32N 31°36' E 121°27'0 0.0
2015-Mar-27 02:32N 31°36' E 121°27'0 0.0
2015-Mar-27 01:33N 31°36' E 121°27'0 0.0
2015-Mar-27 00:33N 31°36' E 121°27'0 0.0
2015-Mar-26 23:32N 31°36' E 121°27'0 0.0
2015-Mar-26 22:32N 31°36' E 121°27'0 0.0
2015-Mar-26 21:33N 31°36' E 121°27'0 0.0
2015-Mar-26 20:33N 31°36' E 121°27'0 0.0
2015-Mar-26 19:31N 31°36' E 121°27'0 0.0
2015-Mar-26 18:33N 31°36' E 121°27'0 0.0
2015-Mar-26 17:33N 31°36' E 121°27'0 0.0
2015-Mar-26 16:31N 31°36' E 121°27'0 0.0
2015-Mar-26 15:33N 31°36' E 121°27'4139.6
2015-Mar-26 14:30N 31°05' E 122°00'4140.7
2015-Mar-26 13:29N 31°36' E 121°27'0 0.0
2015-Mar-26 12:32N 31°36' E 121°27'6565.7
2015-Mar-26 11:33N 31°12' E 122°37'6560.7
2015-Mar-26 10:29N 31°36' E 121°27'0 0.0
2015-Mar-26 09:32N 31°36' E 121°27'0 0.0
2015-Mar-26 08:32N 31°36' E 121°27'0 0.0
2015-Mar-26 07:32N 31°36' E 121°27'0 0.0
2015-Mar-26 06:32N 31°36' E 121°27'0 0.0
2015-Mar-26 05:33N 31°36' E 121°27'0 0.0
2015-Mar-26 04:33N 31°36' E 121°27'0 0.0
2015-Mar-26 03:33N 31°36' E 121°27'0 0.0
2015-Mar-26 02:33N 31°36' E 121°27'0 0.0
2015-Mar-26 01:33N 31°36' E 121°27'0 0.0
2015-Mar-26 00:32N 31°36' E 121°27'0 0.0
2015-Mar-25 23:31N 31°36' E 121°27'0 0.0
2015-Mar-25 22:31N 31°36' E 121°27'0 0.0
2015-Mar-25 21:30N 31°36' E 121°27'0 0.0
2015-Mar-25 20:33N 31°36' E 121°27'0 0.0
2015-Mar-25 19:33N 31°36' E 121°27'2 1.6
2015-Mar-25 18:33N 31°35' E 121°28'2 1.6
2015-Mar-25 17:33N 31°36' E 121°27'0 0.0
2015-Mar-25 16:33N 31°36' E 121°27'2 1.5
2015-Mar-25 15:31N 31°35' E 121°28'2 1.6
2015-Mar-25 14:33N 31°36' E 121°27'0 0.0
2015-Mar-25 13:30N 31°36' E 121°27'2 1.6
2015-Mar-25 12:33N 31°35' E 121°28'2 1.6
2015-Mar-25 11:33N 31°36' E 121°27'0 0.0
2015-Mar-25 10:32N 31°36' E 121°27'0 0.0
2015-Mar-25 09:33N 31°36' E 121°27'6564.0
2015-Mar-25 08:33N 31°11' E 122°37'36443493.5
2015-Mar-25 07:30N 11°58' E 060°40'35863773.0
2015-Mar-25 06:33N 31°35' E 121°28'610.5
2015-Mar-25 06:00N 31°30' E 121°24'613.4 140 / 131034.010.8 11.5 3.211.0
2015-Mar-25 05:33N 31°35' E 121°28'6362.4
2015-Mar-25 04:32N 31°12' E 122°37'6364.4
2015-Mar-25 03:33N 31°35' E 121°28'0 0.0
2015-Mar-25 02:33N 31°35' E 121°28'0 0.0
2015-Mar-25 01:33N 31°35' E 121°28'0 0.1
2015-Mar-25 00:31N 31°35' E 121°28'611.2
2015-Mar-25 00:00N 31°30' E 121°24'613.4 110 / 71034.5 5.4 0.5 9.0 3.411.0
2015-Mar-24 23:33N 31°35' E 121°28'0 0.1
2015-Mar-24 22:33N 31°35' E 121°28'0 0.0
2015-Mar-24 21:33N 31°35' E 121°28'0 0.0
2015-Mar-24 20:31N 31°35' E 121°28'6 6.5
2015-Mar-24 19:33N 31°30' E 121°33'6 6.3
2015-Mar-24 18:33N 31°35' E 121°28'6361.2
2015-Mar-24 17:31N 31°01' E 122°30'6363.9
2015-Mar-24 16:32N 31°35' E 121°28'0 0.0
2015-Mar-24 15:29N 31°35' E 121°28'0 0.1
2015-Mar-24 14:32N 31°35' E 121°28'0 0.1
2015-Mar-24 13:32N 31°35' E 121°28'6364.5
2015-Mar-24 12:33N 31°12' E 122°37'6359.0
2015-Mar-24 11:29N 31°35' E 121°28'0 0.1
2015-Mar-24 10:33N 31°35' E 121°28'0 0.2
2015-Mar-24 09:33N 31°35' E 121°28'0 0.0
2015-Mar-24 08:33N 31°35' E 121°28'0 0.0
2015-Mar-24 07:33N 31°35' E 121°28'0 0.0
2015-Mar-24 06:33N 31°35' E 121°28'0 0.0
2015-Mar-24 05:29N 31°35' E 121°28'0 0.0
2015-Mar-24 04:29N 31°35' E 121°28'33323544.1
2015-Mar-24 03:33N 10°06' E 066°40'33333143.9
2015-Mar-24 02:29N 31°35' E 121°28'0 0.0
2015-Mar-24 01:32N 31°35' E 121°28'0 0.0
2015-Mar-24 00:32N 31°35' E 121°28'0 0.1
2015-Mar-23 23:32N 31°35' E 121°28'0 0.1
2015-Mar-23 22:31N 31°35' E 121°28'0 0.1
2015-Mar-23 21:33N 31°35' E 121°28'0 0.0
2015-Mar-23 20:31N 31°35' E 121°28'0 0.0
2015-Mar-23 19:33N 31°35' E 121°28'0 0.0
2015-Mar-23 18:31N 31°35' E 121°28'611.1
2015-Mar-23 18:00N 31°30' E 121°24'612.4 060 / 71032.010.8 7.5 5.511.0
2015-Mar-23 17:31N 31°35' E 121°28'6363.4
2015-Mar-23 16:31N 31°11' E 122°37'6363.2
2015-Mar-23 15:31N 31°35' E 121°28'6363.6
2015-Mar-23 14:32N 31°12' E 122°37'6364.1
2015-Mar-23 13:32N 31°35' E 121°28'0 0.0
2015-Mar-23 12:29N 31°35' E 121°28'0 0.0
2015-Mar-23 11:34N 31°35' E 121°28'0 0.1
2015-Mar-23 10:33N 31°35' E 121°28'0 0.0
2015-Mar-23 09:31N 31°35' E 121°28'20832024.0
2015-Mar-23 08:29N 01°16' E 103°51'20832174.3
2015-Mar-23 07:31N 31°35' E 121°28'0 0.0
2015-Mar-23 06:30N 31°35' E 121°28'611.4
2015-Mar-23 06:00N 31°30' E 121°24'613.0 080 / 111028.010.8 11.5 4.411.0
2015-Mar-23 05:32N 31°35' E 121°28'0 0.0
2015-Mar-23 04:32N 31°35' E 121°28'45624576.1
2015-Mar-23 03:33N 31°24' E 032°19'45624548.4
2015-Mar-23 02:32N 31°35' E 121°28'11601148.0
2015-Mar-23 01:32N 14°32' E 111°32'11601194.6
2015-Mar-23 00:33N 31°35' E 121°28'53835114.8
2015-Mar-22 23:30N 44°25' E 008°47'54545619.8
2015-Mar-22 22:32N 31°12' E 122°37'6360.9
2015-Mar-22 21:30N 31°35' E 121°28'0 0.1
2015-Mar-22 20:29N 31°35' E 121°28'0 0.0
2015-Mar-22 19:33N 31°35' E 121°28'0 0.0
2015-Mar-22 18:33N 31°35' E 121°28'610.6
2015-Mar-22 18:00N 31°30' E 121°24'611.8 050 / 41027.0 5.4 7.5 6.511.0
2015-Mar-22 17:30N 31°35' E 121°28'0 0.0
2015-Mar-22 16:33N 31°35' E 121°28'680652.9
2015-Mar-22 15:30N 22°20' E 114°07'680707.4
2015-Mar-22 14:33N 31°35' E 121°28'2323.0
2015-Mar-22 13:32N 31°16' E 121°45'419420.5
2015-Mar-22 12:32N 34°50' E 128°55'421428.6
2015-Mar-22 11:33N 31°35' E 121°28'6363.2
2015-Mar-22 10:33N 31°12' E 122°37'6363.4
2015-Mar-22 09:33N 31°35' E 121°28'0 0.1
2015-Mar-22 08:33N 31°35' E 121°28'7 7.1
2015-Mar-22 07:33N 31°31' E 121°35'8 8.0
2015-Mar-22 06:33N 31°31' E 121°26'1010.2
2015-Mar-22 05:34N 31°24' E 121°35'1010.2
2015-Mar-22 04:33N 31°17' E 121°44'1414.3
2015-Mar-22 03:34N 31°07' E 121°56'1212.5
2015-Mar-22 02:33N 31°03' E 122°10'1110.8
2015-Mar-22 01:33N 31°02' E 122°22'9 8.7
2015-Mar-22 00:33N 31°06' E 122°31'8 6.2
2015-Mar-21 23:20N 31°11' E 122°37'0 0.0
2015-Mar-21 22:28N 31°11' E 122°37'0 0.0
2015-Mar-21 21:31N 31°11' E 122°37'0 0.0
2015-Mar-21 20:32N 31°11' E 122°37'0 0.0
2015-Mar-21 19:08N 31°11' E 122°37'0 0.0
2015-Mar-21 18:26N 31°12' E 122°37'1 2.7
2015-Mar-21 18:00N 31°12' E 122°36'1 2.8 280 / 111022.0 5.4 3.012.011.111.0
2015-Mar-21 17:33N 31°12' E 122°37'0 0.0
2015-Mar-21 16:21N 31°12' E 122°37'0 0.1
2015-Mar-21 15:33N 31°12' E 122°37'0 0.0
2015-Mar-21 13:26N 31°12' E 122°37'0 0.0
2015-Mar-21 12:15N 31°12' E 122°37'0 0.0
2015-Mar-21 11:30N 31°12' E 122°37'0 0.1
2015-Mar-21 10:33N 31°11' E 122°37'0 0.0
2015-Mar-21 09:06N 31°11' E 122°37'0 0.0
2015-Mar-21 08:30N 31°11' E 122°37'0 0.0
2015-Mar-21 07:21N 31°11' E 122°37'0 0.0
2015-Mar-21 06:32N 31°11' E 122°37'1 2.3
2015-Mar-21 06:00N 31°12' E 122°36'1 2.2 330 / 71019.5 0.5 13.510.911.0
2015-Mar-21 05:25N 31°11' E 122°37'0 0.0
2015-Mar-21 02:07N 31°12' E 122°37'0 0.0
2015-Mar-21 00:33N 31°12' E 122°37'610.2
2015-Mar-21 00:00N 31°06' E 122°36'610.8 310 / 131022.0 2.2 11.5 8.911.0
2015-Mar-20 23:29N 31°11' E 122°37'0 0.0
2015-Mar-20 22:25N 31°11' E 122°37'0 0.0
2015-Mar-20 21:31N 31°11' E 122°37'0 0.0
2015-Mar-20 20:25N 31°11' E 122°37'0 0.0
2015-Mar-20 19:31N 31°11' E 122°37'0 0.0
2015-Mar-20 18:21N 31°12' E 122°37'0 0.0
2015-Mar-20 17:29N 31°12' E 122°37'0 0.0
2015-Mar-20 16:09N 31°12' E 122°37'0 0.0
2015-Mar-20 15:33N 31°12' E 122°37'0 0.0
2015-Mar-20 14:25N 31°12' E 122°37'0 0.0
2015-Mar-20 13:19N 31°12' E 122°37'0 0.0
2015-Mar-20 12:24N 31°11' E 122°37'0 0.0
2015-Mar-20 11:22N 31°11' E 122°37'704380.5
2015-Mar-20 09:31N 22°13' E 114°10'704547.7
2015-Mar-20 08:14N 31°11' E 122°37'0 0.0
2015-Mar-20 07:33N 31°11' E 122°37'0 0.0
2015-Mar-20 06:27N 31°12' E 122°37'1 2.7
2015-Mar-20 06:00N 31°12' E 122°36'1 1.9 080 / 21019.0 5.4 12.0 9.311.0
2015-Mar-20 05:21N 31°12' E 122°37'0 0.0
2015-Mar-20 04:32N 31°12' E 122°37'0 0.0
2015-Mar-19 22:28N 31°11' E 122°37'0 0.0
2015-Mar-19 21:21N 31°11' E 122°37'0 0.0
2015-Mar-19 20:32N 31°11' E 122°37'0 0.0
2015-Mar-19 19:29N 31°11' E 122°37'0 0.0
2015-Mar-19 18:30N 31°11' E 122°37'0 0.1
2015-Mar-19 17:30N 31°11' E 122°37'0 0.0
2015-Mar-19 16:24N 31°12' E 122°37'0 0.0
2015-Mar-19 15:25N 31°12' E 122°37'0 0.1
2015-Mar-19 14:33N 31°12' E 122°37'0 0.0
2015-Mar-19 13:30N 31°12' E 122°37'0 0.0
2015-Mar-19 12:29N 31°12' E 122°37'388404.4
2015-Mar-19 11:31N 35°04' E 128°47'388386.7
2015-Mar-19 10:31N 31°11' E 122°37'0 0.1
2015-Mar-19 09:33N 31°11' E 122°37'0 0.0
2015-Mar-19 08:29N 31°11' E 122°37'0 0.0
2015-Mar-19 07:32N 31°11' E 122°37'0 0.1
2015-Mar-19 06:32N 31°12' E 122°37'6 5.9
2015-Mar-19 05:30N 31°10' E 122°44'1414.2
2015-Mar-19 04:31N 31°17' E 122°58'  

Dump ship's entire track history